createdAt,value
2017-10-15T00:01:29.302Z,99.90
2017-10-15T00:03:57.423Z,99.90
2017-10-15T00:06:25.182Z,99.90
2017-10-15T00:08:54.388Z,99.90
2017-10-15T00:11:22.238Z,99.90
2017-10-15T00:13:50.100Z,99.90
2017-10-15T00:16:17.858Z,99.90
2017-10-15T00:18:45.636Z,99.90
2017-10-15T00:21:13.382Z,99.90
2017-10-15T00:23:41.977Z,99.90
2017-10-15T00:26:09.837Z,99.90
2017-10-15T00:28:37.645Z,99.90
2017-10-15T00:31:06.209Z,99.90
2017-10-15T00:33:34.068Z,99.90
2017-10-15T00:36:01.932Z,99.90
2017-10-15T00:38:29.851Z,99.90
2017-10-15T00:40:57.669Z,99.90
2017-10-15T00:43:25.464Z,99.90
2017-10-15T00:45:53.971Z,99.90
2017-10-15T00:48:21.759Z,99.90
2017-10-15T00:50:49.521Z,99.90
2017-10-15T00:53:17.323Z,99.90
2017-10-15T00:55:45.987Z,99.90
2017-10-15T00:58:13.831Z,99.90
2017-10-15T01:00:41.715Z,99.90
2017-10-15T01:03:09.670Z,99.90
2017-10-15T01:05:37.563Z,99.90
2017-10-15T01:08:05.326Z,99.90
2017-10-15T01:10:34.089Z,99.90
2017-10-15T01:13:02.039Z,99.90
2017-10-15T01:15:29.830Z,99.90
2017-10-15T01:17:57.913Z,99.90
2017-10-15T01:20:25.739Z,99.90
2017-10-15T01:22:53.639Z,99.90
2017-10-15T01:25:21.463Z,99.90
2017-10-15T01:27:49.510Z,99.90
2017-10-15T01:30:18.262Z,99.90
2017-10-15T01:32:46.425Z,99.90
2017-10-15T01:35:14.303Z,99.90
2017-10-15T01:37:43.035Z,99.90
2017-10-15T01:40:12.290Z,99.90
2017-10-15T01:42:40.262Z,99.90
2017-10-15T01:45:08.392Z,99.90
2017-10-15T01:47:36.212Z,99.90
2017-10-15T01:50:04.355Z,99.90
2017-10-15T01:52:32.346Z,99.90
2017-10-15T01:55:00.347Z,99.90
2017-10-15T01:57:28.942Z,99.90
2017-10-15T01:59:57.046Z,99.90
2017-10-15T02:02:24.839Z,99.90
2017-10-15T02:04:52.784Z,99.90
2017-10-15T02:07:20.956Z,99.90
2017-10-15T02:09:48.834Z,99.90
2017-10-15T02:12:17.402Z,99.90
2017-10-15T02:14:45.288Z,99.90
2017-10-15T02:17:14.098Z,99.90
2017-10-15T02:19:41.940Z,99.90
2017-10-15T02:22:10.015Z,99.90
2017-10-15T02:24:37.761Z,99.90
2017-10-15T02:27:05.562Z,99.90
2017-10-15T02:29:33.312Z,99.90
2017-10-15T02:32:01.562Z,99.90
2017-10-15T02:34:29.451Z,99.90
2017-10-15T02:36:57.197Z,99.90
2017-10-15T02:39:25.063Z,99.90
2017-10-15T02:41:52.802Z,99.90
2017-10-15T02:44:20.811Z,99.90
2017-10-15T02:46:48.842Z,99.90
2017-10-15T02:49:16.807Z,99.90
2017-10-15T02:51:44.614Z,99.90
2017-10-15T02:54:12.357Z,99.90
2017-10-15T02:56:40.968Z,99.90
2017-10-15T02:59:08.813Z,99.90
2017-10-15T03:01:36.594Z,99.90
2017-10-15T03:04:04.769Z,99.90
2017-10-15T03:06:32.737Z,99.90
2017-10-15T03:09:00.830Z,99.90
2017-10-15T03:11:29.381Z,99.90
2017-10-15T03:13:57.150Z,99.90
2017-10-15T03:16:24.962Z,99.90
2017-10-15T03:18:53.600Z,99.90
2017-10-15T03:21:21.350Z,99.90
2017-10-15T03:23:49.339Z,99.90
2017-10-15T03:26:17.408Z,99.90
2017-10-15T03:28:45.239Z,99.90
2017-10-15T03:31:12.987Z,99.90
2017-10-15T03:33:40.799Z,99.90
2017-10-15T03:36:08.650Z,99.90
2017-10-15T03:38:36.639Z,99.90
2017-10-15T03:41:04.718Z,99.90
2017-10-15T03:43:32.574Z,99.90
2017-10-15T03:46:01.550Z,99.90
2017-10-15T03:48:29.325Z,99.90
2017-10-15T03:50:57.291Z,99.90
2017-10-15T03:53:25.045Z,99.90
2017-10-15T03:55:52.832Z,99.90
2017-10-15T03:58:20.565Z,99.90
2017-10-15T04:00:48.366Z,99.90
2017-10-15T04:03:16.319Z,99.90
2017-10-15T04:05:44.078Z,99.90
2017-10-15T04:08:11.856Z,99.90
2017-10-15T04:10:39.728Z,99.90
2017-10-15T04:13:07.599Z,99.90
2017-10-15T04:15:35.390Z,99.90
2017-10-15T04:18:04.245Z,99.90
2017-10-15T04:20:32.116Z,99.90
2017-10-15T04:22:59.912Z,99.90
2017-10-15T04:25:28.661Z,99.90
2017-10-15T04:27:56.398Z,99.90
2017-10-15T04:30:24.290Z,99.90
2017-10-15T04:32:52.257Z,99.90
2017-10-15T04:35:20.025Z,99.90
2017-10-15T04:37:47.786Z,99.90
2017-10-15T04:40:15.651Z,99.90
2017-10-15T04:42:43.420Z,99.90
2017-10-15T04:45:11.287Z,99.90
2017-10-15T04:47:39.047Z,99.90
2017-10-15T04:50:06.804Z,99.90
2017-10-15T04:52:34.562Z,99.90
2017-10-15T04:55:02.447Z,99.90
2017-10-15T04:57:30.410Z,99.90
2017-10-15T04:59:58.260Z,99.90
2017-10-15T05:02:25.978Z,99.90
2017-10-15T05:04:54.524Z,99.90
2017-10-15T05:07:22.684Z,99.90
2017-10-15T05:09:50.648Z,99.90
2017-10-15T05:12:18.429Z,99.90
2017-10-15T05:14:46.381Z,99.90
2017-10-15T05:17:14.360Z,99.90
2017-10-15T05:19:43.182Z,99.90
2017-10-15T05:22:12.133Z,99.90
2017-10-15T05:24:39.995Z,99.90
2017-10-15T05:27:07.875Z,99.90
2017-10-15T05:29:35.830Z,99.90
2017-10-15T05:32:03.564Z,99.90
2017-10-15T05:34:31.461Z,99.90
2017-10-15T05:36:59.448Z,99.90
2017-10-15T05:39:27.307Z,99.90
2017-10-15T05:41:55.078Z,99.90
2017-10-15T05:44:22.888Z,99.90
2017-10-15T05:46:50.723Z,99.90
2017-10-15T05:49:19.292Z,99.90
2017-10-15T05:51:47.264Z,99.90
2017-10-15T05:54:15.635Z,99.90
2017-10-15T05:56:45.316Z,99.90
2017-10-15T05:59:13.065Z,99.90
2017-10-15T06:01:40.872Z,99.90
2017-10-15T06:04:08.726Z,99.90
2017-10-15T06:06:36.722Z,99.90
2017-10-15T06:09:05.040Z,99.90
2017-10-15T06:11:32.937Z,99.90
2017-10-15T06:14:00.729Z,99.90
2017-10-15T06:16:30.103Z,99.90
2017-10-15T06:18:58.684Z,99.90
2017-10-15T06:21:26.685Z,99.90
2017-10-15T06:23:54.556Z,99.90
2017-10-15T06:26:22.628Z,99.90
2017-10-15T06:28:50.479Z,99.90
2017-10-15T06:31:18.400Z,99.90
2017-10-15T06:33:46.297Z,99.90
2017-10-15T06:36:14.287Z,99.90
2017-10-15T06:38:42.439Z,99.90
2017-10-15T06:41:10.185Z,99.90
2017-10-15T06:43:37.956Z,99.90
2017-10-15T06:46:06.743Z,99.90
2017-10-15T06:48:34.737Z,99.90
2017-10-15T06:51:04.321Z,99.90
2017-10-15T06:53:33.588Z,99.90
2017-10-15T06:56:02.652Z,99.90
2017-10-15T06:58:32.789Z,99.90
2017-10-15T07:01:02.254Z,99.90
2017-10-15T07:03:31.538Z,99.10
2017-10-15T07:06:00.865Z,99.20
2017-10-15T07:08:30.128Z,99.30
2017-10-15T07:10:59.479Z,98.80
2017-10-15T07:13:28.138Z,99.10
2017-10-15T07:15:56.616Z,99.10
2017-10-15T07:18:24.681Z,98.20
2017-10-15T07:20:53.083Z,98.90
2017-10-15T07:23:24.430Z,97.60
2017-10-15T07:25:52.700Z,97.60
2017-10-15T07:28:20.558Z,96.50
2017-10-15T07:30:48.552Z,94.90
2017-10-15T07:33:17.338Z,96.30
2017-10-15T07:35:46.125Z,97.80
2017-10-15T07:38:14.101Z,97.40
2017-10-15T07:40:42.043Z,98.70
2017-10-15T07:43:09.901Z,98.50
2017-10-15T07:45:37.771Z,98.50
2017-10-15T07:48:06.026Z,99.90
2017-10-15T07:50:33.940Z,99.90
2017-10-15T07:53:01.899Z,99.50
2017-10-15T07:55:30.429Z,99.70
2017-10-15T07:57:58.335Z,99.90
2017-10-15T08:00:26.417Z,99.90
2017-10-15T08:02:54.691Z,99.90
2017-10-15T08:05:22.768Z,99.90
2017-10-15T08:07:52.332Z,99.90
2017-10-15T08:10:20.453Z,99.90
2017-10-15T08:12:48.336Z,99.90
2017-10-15T08:15:16.922Z,99.90
2017-10-15T08:17:45.566Z,99.60
2017-10-15T08:20:13.449Z,99.50
2017-10-15T08:22:41.525Z,98.70
2017-10-15T08:25:09.501Z,98.90
2017-10-15T08:27:37.254Z,97.80
2017-10-15T08:30:05.402Z,98.80
2017-10-15T08:32:33.193Z,98.80
2017-10-15T08:35:01.158Z,98.60
2017-10-15T08:37:29.027Z,98.40
2017-10-15T08:39:56.879Z,98.60
2017-10-15T08:42:24.926Z,98.40
2017-10-15T08:44:52.923Z,99.40
2017-10-15T08:47:21.470Z,99.10
2017-10-15T08:49:50.561Z,99.90
2017-10-15T08:52:19.382Z,99.00
2017-10-15T08:54:47.270Z,99.00
2017-10-15T08:57:15.322Z,99.00
2017-10-15T08:59:43.210Z,99.30
2017-10-15T09:02:11.065Z,99.30
2017-10-15T09:04:38.950Z,99.90
2017-10-15T09:07:06.850Z,99.90
2017-10-15T09:09:34.776Z,99.90
2017-10-15T09:12:04.152Z,99.90
2017-10-15T09:14:31.999Z,99.90
2017-10-15T09:16:59.927Z,99.90
2017-10-15T09:19:27.794Z,99.90
2017-10-15T09:21:55.645Z,99.90
2017-10-15T09:24:24.066Z,99.90
2017-10-15T09:26:51.970Z,99.90
2017-10-15T09:29:19.860Z,99.90
2017-10-15T09:31:47.879Z,99.90
2017-10-15T09:34:15.777Z,99.90
2017-10-15T09:36:43.742Z,99.90
2017-10-15T09:39:11.512Z,99.90
2017-10-15T09:41:39.396Z,99.90
2017-10-15T09:44:07.255Z,99.90
2017-10-15T09:46:35.133Z,99.90
2017-10-15T09:49:03.725Z,99.90
2017-10-15T09:51:32.293Z,99.90
2017-10-15T09:54:00.448Z,99.90
2017-10-15T09:56:28.715Z,99.90
2017-10-15T09:58:56.638Z,99.90
2017-10-15T10:01:25.891Z,99.90
2017-10-15T10:03:53.870Z,99.90
2017-10-15T10:06:22.482Z,99.90
2017-10-15T10:08:50.603Z,99.90
2017-10-15T10:11:18.366Z,99.70
2017-10-15T10:13:46.360Z,99.90
2017-10-15T10:16:14.155Z,99.90
2017-10-15T10:18:42.052Z,99.90
2017-10-15T10:21:10.773Z,99.90
2017-10-15T10:23:38.550Z,99.90
2017-10-15T10:26:07.222Z,99.90
2017-10-15T10:28:35.534Z,99.90
2017-10-15T10:31:03.392Z,99.90
2017-10-15T10:33:31.360Z,99.90
2017-10-15T10:35:59.303Z,99.90
2017-10-15T10:38:27.071Z,99.90
2017-10-15T10:40:54.932Z,99.90
2017-10-15T10:43:22.797Z,99.90
2017-10-15T10:45:50.561Z,99.90
2017-10-15T10:48:18.778Z,99.90
2017-10-15T10:50:47.429Z,99.90
2017-10-15T10:53:15.500Z,99.90
2017-10-15T10:55:43.530Z,99.90
2017-10-15T10:58:11.344Z,99.90
2017-10-15T11:00:39.298Z,99.90
2017-10-15T11:03:07.190Z,99.90
2017-10-15T11:05:35.956Z,99.90
2017-10-15T11:08:03.821Z,99.90
2017-10-15T11:10:31.608Z,99.90
2017-10-15T11:12:59.473Z,99.90
2017-10-15T11:15:27.440Z,99.90
2017-10-15T11:17:55.390Z,99.90
2017-10-15T11:20:23.274Z,99.90
2017-10-15T11:22:51.140Z,99.90
2017-10-15T11:25:19.500Z,99.90
2017-10-15T11:27:47.386Z,99.90
2017-10-15T11:30:15.336Z,99.90
2017-10-15T11:32:43.544Z,99.50
2017-10-15T11:35:11.660Z,99.90
2017-10-15T11:37:39.470Z,99.90
2017-10-15T11:40:07.340Z,99.90
2017-10-15T11:42:35.503Z,99.90
2017-10-15T11:45:03.380Z,99.90
2017-10-15T11:47:31.380Z,99.90
2017-10-15T11:49:59.938Z,99.90
2017-10-15T11:52:28.612Z,99.90
2017-10-15T11:54:56.388Z,99.90
2017-10-15T11:57:24.954Z,99.90
2017-10-15T11:59:53.031Z,99.90
2017-10-15T12:02:22.446Z,99.90
2017-10-15T12:04:50.386Z,99.90
2017-10-15T12:07:18.900Z,99.90
2017-10-15T12:09:47.038Z,99.90
2017-10-15T12:12:15.005Z,99.90
2017-10-15T12:14:42.899Z,99.90
2017-10-15T12:17:10.769Z,99.90
2017-10-15T12:19:39.646Z,99.90
2017-10-15T12:22:07.409Z,99.90
2017-10-15T12:24:35.279Z,99.90
2017-10-15T12:27:03.056Z,99.90
2017-10-15T12:29:31.622Z,99.90
2017-10-15T12:31:59.480Z,99.90
2017-10-15T12:34:28.079Z,99.90
2017-10-15T12:36:55.944Z,99.90
2017-10-15T12:39:24.015Z,99.90
2017-10-15T12:41:52.075Z,99.90
2017-10-15T12:44:20.093Z,99.90
2017-10-15T12:46:48.914Z,99.90
2017-10-15T12:49:16.816Z,99.90
2017-10-15T12:51:45.492Z,99.50
2017-10-15T12:54:13.527Z,99.40
2017-10-15T12:56:41.319Z,99.20
2017-10-15T12:59:09.201Z,99.20
2017-10-15T13:01:36.990Z,99.20
2017-10-15T13:04:05.572Z,99.00
2017-10-15T13:06:34.521Z,98.80
2017-10-15T13:09:02.302Z,98.80
2017-10-15T13:11:30.130Z,99.70
2017-10-15T13:13:58.034Z,98.80
2017-10-15T13:16:26.097Z,98.20
2017-10-15T13:18:53.999Z,97.80
2017-10-15T13:21:22.663Z,96.50
2017-10-15T13:23:50.475Z,96.60
2017-10-15T13:26:18.374Z,96.40
2017-10-15T13:28:47.162Z,96.10
2017-10-15T13:31:15.161Z,95.90
2017-10-15T13:33:42.933Z,95.70
2017-10-15T13:36:11.689Z,96.30
2017-10-15T13:38:39.551Z,96.30
2017-10-15T13:41:07.552Z,94.80
2017-10-15T13:43:35.413Z,94.70
2017-10-15T13:46:03.383Z,95.30
2017-10-15T13:48:31.439Z,95.00
2017-10-15T13:50:59.502Z,94.80
2017-10-15T13:53:27.361Z,94.20
2017-10-15T13:55:55.283Z,92.70
2017-10-15T13:58:24.025Z,94.10
2017-10-15T14:00:52.088Z,94.00
2017-10-15T14:03:20.056Z,93.70
2017-10-15T14:05:47.867Z,93.70
2017-10-15T14:08:17.736Z,93.00
2017-10-15T14:10:45.632Z,93.00
2017-10-15T14:13:13.496Z,93.10
2017-10-15T14:15:43.004Z,93.30
2017-10-15T14:18:11.862Z,93.00
2017-10-15T14:20:39.731Z,93.00
2017-10-15T14:23:07.623Z,93.10
2017-10-15T14:25:35.482Z,92.70
2017-10-15T14:28:03.429Z,92.70
2017-10-15T14:30:32.031Z,92.70
2017-10-15T14:33:00.096Z,92.60
2017-10-15T14:35:28.503Z,93.10
2017-10-15T14:37:57.047Z,93.40
2017-10-15T14:40:24.949Z,93.00
2017-10-15T14:42:52.895Z,92.60
2017-10-15T14:45:20.852Z,92.70
2017-10-15T14:47:48.719Z,91.20
2017-10-15T14:50:16.984Z,91.70
2017-10-15T14:52:44.843Z,91.60
2017-10-15T14:55:14.472Z,90.90
2017-10-15T14:57:43.381Z,91.10
2017-10-15T15:00:11.248Z,90.60
2017-10-15T15:02:39.037Z,90.80
2017-10-15T15:05:09.006Z,90.70
2017-10-15T15:07:36.998Z,90.40
2017-10-15T15:10:05.502Z,89.50
2017-10-15T15:12:34.575Z,89.60
2017-10-15T15:15:02.435Z,89.60
2017-10-15T15:17:30.184Z,90.60
2017-10-15T15:19:58.262Z,90.20
2017-10-15T15:22:26.027Z,90.10
2017-10-15T15:24:53.876Z,90.00
2017-10-15T15:27:21.780Z,90.40
2017-10-15T15:29:49.942Z,91.30
2017-10-15T15:32:18.200Z,91.40
2017-10-15T15:34:46.067Z,92.00
2017-10-15T15:37:15.502Z,92.10
2017-10-15T15:39:43.639Z,92.10
2017-10-15T15:42:11.431Z,92.30
2017-10-15T15:44:39.392Z,92.30
2017-10-15T15:47:08.075Z,92.60
2017-10-15T15:49:35.892Z,92.90
2017-10-15T15:52:03.898Z,93.10
2017-10-15T15:54:31.867Z,92.70
2017-10-15T15:57:00.102Z,92.70
2017-10-15T15:59:28.946Z,93.00
2017-10-15T16:01:56.698Z,94.50
2017-10-15T16:04:24.822Z,95.20
2017-10-15T16:06:53.567Z,97.70
2017-10-15T16:09:22.007Z,97.80
2017-10-15T16:11:50.034Z,99.30
2017-10-15T16:14:18.500Z,99.90
2017-10-15T16:16:46.674Z,99.90
2017-10-15T16:19:14.934Z,99.90
2017-10-15T16:21:42.968Z,99.90
2017-10-15T16:24:10.790Z,99.90
2017-10-15T16:26:38.937Z,99.90
2017-10-15T16:29:06.933Z,99.90
2017-10-15T16:31:34.877Z,99.90
2017-10-15T16:34:02.849Z,99.90
2017-10-15T16:36:30.947Z,99.90
2017-10-15T16:38:58.995Z,99.90
2017-10-15T16:41:26.945Z,99.90
2017-10-15T16:43:54.946Z,99.90
2017-10-15T16:46:22.715Z,99.90
2017-10-15T16:48:50.687Z,99.90
2017-10-15T16:51:18.588Z,99.90
2017-10-15T16:53:47.134Z,99.90
2017-10-15T16:56:17.001Z,99.90
2017-10-15T16:58:44.856Z,99.90
2017-10-15T17:01:12.711Z,99.90
2017-10-15T17:03:41.717Z,99.90
2017-10-15T17:06:09.620Z,99.90
2017-10-15T17:08:37.499Z,99.90
2017-10-15T17:11:05.658Z,99.90
2017-10-15T17:13:33.441Z,99.90
2017-10-15T17:16:01.495Z,99.90
2017-10-15T17:18:29.396Z,99.90
2017-10-15T17:20:58.039Z,99.90
2017-10-15T17:23:25.913Z,99.90
2017-10-15T17:25:53.845Z,99.90
2017-10-15T17:28:21.865Z,99.90
2017-10-15T17:30:49.763Z,99.90
2017-10-15T17:33:18.430Z,99.90
2017-10-15T17:35:46.290Z,99.90
2017-10-15T17:38:14.137Z,99.90
2017-10-15T17:40:42.632Z,99.90
2017-10-15T17:43:10.503Z,99.90
2017-10-15T17:45:38.493Z,99.90
2017-10-15T17:48:07.351Z,99.90
2017-10-15T17:50:35.310Z,99.90
2017-10-15T17:53:03.181Z,99.90
2017-10-15T17:55:31.351Z,99.90
2017-10-15T17:57:59.138Z,99.90
2017-10-15T18:00:26.982Z,99.90
2017-10-15T18:02:55.592Z,99.90
2017-10-15T18:05:24.355Z,99.90
2017-10-15T18:07:54.247Z,99.90
2017-10-15T18:10:24.214Z,99.90
2017-10-15T18:12:53.590Z,99.90
2017-10-15T18:15:22.262Z,99.90
2017-10-15T18:17:50.858Z,99.90
2017-10-15T18:20:18.925Z,99.90
2017-10-15T18:22:46.895Z,99.90
2017-10-15T18:25:14.830Z,99.90
2017-10-15T18:27:42.654Z,99.90
2017-10-15T18:30:10.590Z,99.90
2017-10-15T18:32:38.487Z,99.90
2017-10-15T18:35:06.369Z,99.90
2017-10-15T18:37:34.298Z,99.90
2017-10-15T18:40:02.300Z,99.90
2017-10-15T18:42:30.231Z,99.90
2017-10-15T18:44:58.921Z,99.90
2017-10-15T18:47:27.001Z,99.90
2017-10-15T18:49:55.587Z,99.90
2017-10-15T18:52:23.545Z,99.90
2017-10-15T18:54:51.513Z,99.90
2017-10-15T18:57:19.483Z,99.90
2017-10-15T18:59:48.377Z,99.90
2017-10-15T19:02:16.465Z,99.90
2017-10-15T19:04:44.336Z,99.90
2017-10-15T19:07:12.112Z,99.90
2017-10-15T19:09:40.635Z,99.90
2017-10-15T19:12:08.743Z,99.90
2017-10-15T19:14:36.601Z,99.90
2017-10-15T19:17:04.460Z,99.90
2017-10-15T19:19:32.348Z,99.90
2017-10-15T19:22:00.298Z,99.90
2017-10-15T19:24:28.184Z,99.90
2017-10-15T19:26:56.133Z,99.90
2017-10-15T19:29:24.112Z,99.90
2017-10-15T19:31:52.084Z,99.90
2017-10-15T19:34:20.043Z,99.90
2017-10-15T19:36:48.014Z,99.90
2017-10-15T19:39:15.980Z,99.90
2017-10-15T19:41:43.854Z,99.90
2017-10-15T19:44:12.873Z,99.70
2017-10-15T19:46:41.496Z,98.30
2017-10-15T19:49:09.308Z,98.30
2017-10-15T19:51:37.182Z,97.80
2017-10-15T19:54:05.472Z,97.60
2017-10-15T19:56:34.232Z,97.70
2017-10-15T19:59:02.080Z,97.70
2017-10-15T20:01:30.066Z,98.00
2017-10-15T20:03:57.848Z,97.20
2017-10-15T20:06:25.995Z,96.50
2017-10-15T20:08:53.962Z,96.80
2017-10-15T20:11:30.858Z,96.10
2017-10-15T20:13:59.639Z,95.60
2017-10-15T20:16:27.593Z,95.60
2017-10-15T20:18:55.458Z,95.70
2017-10-15T20:21:23.434Z,95.50
2017-10-15T20:23:51.308Z,95.50
2017-10-15T20:26:19.098Z,95.40
2017-10-15T20:28:48.386Z,95.50
2017-10-15T20:31:17.147Z,95.50
2017-10-15T20:33:45.115Z,95.40
2017-10-15T20:36:12.981Z,95.20
2017-10-15T20:38:40.951Z,95.60
2017-10-15T20:41:08.818Z,95.30
2017-10-15T20:43:36.692Z,95.10
2017-10-15T20:46:04.878Z,95.00
2017-10-15T20:48:33.548Z,95.00
2017-10-15T20:51:01.429Z,94.70
2017-10-15T20:53:32.959Z,94.50
2017-10-15T20:56:01.000Z,94.70
2017-10-15T20:58:28.932Z,94.80
2017-10-15T21:00:56.762Z,94.70
2017-10-15T21:03:25.870Z,94.30
2017-10-15T21:05:53.828Z,93.70
2017-10-15T21:08:21.623Z,93.50
2017-10-15T21:10:49.379Z,93.60
2017-10-15T21:13:17.138Z,93.50
2017-10-15T21:15:44.906Z,93.20
2017-10-15T21:18:12.652Z,93.20
2017-10-15T21:20:40.618Z,93.70
2017-10-15T21:23:08.665Z,93.90
2017-10-15T21:25:36.492Z,94.10
2017-10-15T21:28:05.258Z,95.20
2017-10-15T21:30:33.235Z,95.20
2017-10-15T21:33:01.106Z,95.00
2017-10-15T21:35:30.073Z,95.60
2017-10-15T21:37:58.175Z,95.70
2017-10-15T21:40:26.044Z,95.80
2017-10-15T21:42:53.872Z,96.00
2017-10-15T21:45:22.588Z,96.00
2017-10-15T21:47:50.405Z,95.70
2017-10-15T21:50:18.314Z,95.60
2017-10-15T21:52:46.179Z,95.60
2017-10-15T21:55:14.787Z,96.20
2017-10-15T21:57:43.442Z,96.30
2017-10-15T22:00:11.214Z,96.30
2017-10-15T22:02:39.740Z,96.20
2017-10-15T22:05:07.556Z,96.20
2017-10-15T22:07:35.585Z,96.00
2017-10-15T22:10:03.403Z,95.50
2017-10-15T22:12:31.251Z,95.40
2017-10-15T22:14:59.031Z,95.30
2017-10-15T22:17:27.815Z,95.30
2017-10-15T22:19:55.638Z,95.30
2017-10-15T22:22:25.442Z,95.20
2017-10-15T22:24:53.238Z,95.30
2017-10-15T22:27:20.984Z,95.40
2017-10-15T22:29:48.746Z,95.30
2017-10-15T22:32:16.547Z,94.90
2017-10-15T22:34:44.826Z,94.90
2017-10-15T22:37:13.351Z,94.90
2017-10-15T22:39:41.111Z,94.60
2017-10-15T22:42:08.840Z,94.80
2017-10-15T22:44:36.849Z,94.80
2017-10-15T22:47:04.661Z,94.80
2017-10-15T22:49:32.459Z,94.70
2017-10-15T22:52:01.096Z,95.30
2017-10-15T22:54:29.700Z,96.10
2017-10-15T22:56:57.566Z,95.70
2017-10-15T22:59:25.342Z,95.80
2017-10-15T23:01:53.091Z,96.50
2017-10-15T23:04:21.059Z,96.90
2017-10-15T23:06:48.914Z,96.30
2017-10-15T23:09:16.762Z,95.30
2017-10-15T23:11:44.656Z,95.40
2017-10-15T23:14:12.413Z,95.70
2017-10-15T23:16:40.275Z,96.10
2017-10-15T23:19:08.158Z,96.60
2017-10-15T23:21:36.312Z,97.50
2017-10-15T23:24:04.049Z,98.00
2017-10-15T23:26:31.943Z,98.20
2017-10-15T23:28:59.670Z,98.60
2017-10-15T23:31:27.474Z,98.90
2017-10-15T23:33:55.337Z,99.70
2017-10-15T23:36:23.308Z,99.80
2017-10-15T23:38:51.393Z,99.90
2017-10-15T23:41:19.133Z,99.90
2017-10-15T23:43:47.207Z,99.90
2017-10-15T23:46:14.960Z,99.90
2017-10-15T23:48:43.306Z,99.90
2017-10-15T23:51:11.811Z,99.90
2017-10-15T23:53:39.702Z,99.90
2017-10-15T23:56:07.671Z,99.90
2017-10-15T23:58:35.454Z,99.90
